sensor_id;sensor_type;location;lat;lon;timestamp;P1;durP1;ratioP1;P2;durP2;ratioP2
25567;SDS011;13455;51.480;7.594;2023-04-08T00:01:23;40.80;;;23.90;;
25567;SDS011;13455;51.480;7.594;2023-04-08T00:03:48;31.52;;;23.48;;
25567;SDS011;13455;51.480;7.594;2023-04-08T00:06:14;27.98;;;23.00;;
25567;SDS011;13455;51.480;7.594;2023-04-08T00:08:40;27.77;;;22.00;;
25567;SDS011;13455;51.480;7.594;2023-04-08T00:11:05;26.50;;;21.80;;
25567;SDS011;13455;51.480;7.594;2023-04-08T00:13:31;26.33;;;22.17;;
25567;SDS011;13455;51.480;7.594;2023-04-08T00:15:57;27.27;;;22.92;;
25567;SDS011;13455;51.480;7.594;2023-04-08T00:18:23;28.43;;;23.30;;
25567;SDS011;13455;51.480;7.594;2023-04-08T00:20:48;27.47;;;22.10;;
25567;SDS011;13455;51.480;7.594;2023-04-08T00:23:14;26.83;;;22.27;;
25567;SDS011;13455;51.480;7.594;2023-04-08T00:25:40;28.30;;;21.83;;
25567;SDS011;13455;51.480;7.594;2023-04-08T00:28:05;26.60;;;21.45;;
25567;SDS011;13455;51.480;7.594;2023-04-08T00:30:31;23.77;;;20.95;;
25567;SDS011;13455;51.480;7.594;2023-04-08T00:32:58;24.17;;;20.30;;
25567;SDS011;13455;51.480;7.594;2023-04-08T00:35:24;24.23;;;20.92;;
25567;SDS011;13455;51.480;7.594;2023-04-08T00:37:50;24.15;;;19.80;;
25567;SDS011;13455;51.480;7.594;2023-04-08T00:40:16;23.97;;;20.40;;
25567;SDS011;13455;51.480;7.594;2023-04-08T00:42:41;25.23;;;20.33;;
25567;SDS011;13455;51.480;7.594;2023-04-08T00:45:07;25.83;;;21.70;;
25567;SDS011;13455;51.480;7.594;2023-04-08T00:47:34;25.65;;;21.77;;
25567;SDS011;13455;51.480;7.594;2023-04-08T00:50:00;25.20;;;21.30;;
25567;SDS011;13455;51.480;7.594;2023-04-08T00:52:26;28.58;;;21.95;;
25567;SDS011;13455;51.480;7.594;2023-04-08T00:54:52;25.80;;;21.83;;
25567;SDS011;13455;51.480;7.594;2023-04-08T00:57:18;26.13;;;22.30;;
25567;SDS011;13455;51.480;7.594;2023-04-08T00:59:43;29.87;;;23.80;;
25567;SDS011;13455;51.480;7.594;2023-04-08T01:05:08;27.98;;;23.55;;
25567;SDS011;13455;51.480;7.594;2023-04-08T01:07:37;29.25;;;24.23;;
25567;SDS011;13455;51.480;7.594;2023-04-08T01:12:59;29.08;;;23.27;;
25567;SDS011;13455;51.480;7.594;2023-04-08T01:15:28;27.85;;;22.10;;
25567;SDS011;13455;51.480;7.594;2023-04-08T01:17:56;27.23;;;22.10;;
25567;SDS011;13455;51.480;7.594;2023-04-08T01:20:24;29.10;;;23.80;;
25567;SDS011;13455;51.480;7.594;2023-04-08T01:25:37;28.60;;;23.58;;
25567;SDS011;13455;51.480;7.594;2023-04-08T01:28:04;28.05;;;23.50;;
25567;SDS011;13455;51.480;7.594;2023-04-08T01:30:30;29.88;;;24.15;;
25567;SDS011;13455;51.480;7.594;2023-04-08T01:32:57;28.27;;;23.42;;
25567;SDS011;13455;51.480;7.594;2023-04-08T01:35:25;30.58;;;25.15;;
25567;SDS011;13455;51.480;7.594;2023-04-08T01:37:51;30.48;;;24.23;;
25567;SDS011;13455;51.480;7.594;2023-04-08T01:40:19;28.38;;;23.67;;
25567;SDS011;13455;51.480;7.594;2023-04-08T01:42:46;27.40;;;22.65;;
25567;SDS011;13455;51.480;7.594;2023-04-08T01:45:13;26.75;;;22.48;;
25567;SDS011;13455;51.480;7.594;2023-04-08T01:47:41;28.58;;;22.70;;
25567;SDS011;13455;51.480;7.594;2023-04-08T01:50:09;28.98;;;23.17;;
25567;SDS011;13455;51.480;7.594;2023-04-08T01:52:36;28.13;;;23.00;;
25567;SDS011;13455;51.480;7.594;2023-04-08T01:55:04;30.15;;;23.92;;
25567;SDS011;13455;51.480;7.594;2023-04-08T01:57:31;27.63;;;22.13;;
25567;SDS011;13455;51.480;7.594;2023-04-08T01:59:59;30.20;;;24.15;;
25567;SDS011;13455;51.480;7.594;2023-04-08T02:02:28;44.27;;;33.37;;
25567;SDS011;13455;51.480;7.594;2023-04-08T02:04:56;34.60;;;25.02;;
25567;SDS011;13455;51.480;7.594;2023-04-08T02:07:22;41.10;;;28.17;;
25567;SDS011;13455;51.480;7.594;2023-04-08T02:09:48;29.70;;;22.75;;
25567;SDS011;13455;51.480;7.594;2023-04-08T02:12:14;24.98;;;20.20;;
25567;SDS011;13455;51.480;7.594;2023-04-08T02:14:41;24.17;;;19.77;;
25567;SDS011;13455;51.480;7.594;2023-04-08T02:19:52;220.23;;;22.00;;
25567;SDS011;13455;51.480;7.594;2023-04-08T02:22:28;295.75;;;23.23;;
25567;SDS011;13455;51.480;7.594;2023-04-08T02:25:01;293.30;;;24.92;;
25567;SDS011;13455;51.480;7.594;2023-04-08T02:27:28;276.58;;;24.67;;
25567;SDS011;13455;51.480;7.594;2023-04-08T02:29:58;264.17;;;24.42;;
25567;SDS011;13455;51.480;7.594;2023-04-08T02:32:26;268.42;;;25.55;;
25567;SDS011;13455;51.480;7.594;2023-04-08T02:34:54;304.25;;;25.55;;
25567;SDS011;13455;51.480;7.594;2023-04-08T02:37:22;349.83;;;25.80;;
25567;SDS011;13455;51.480;7.594;2023-04-08T02:39:47;409.60;;;27.40;;
25567;SDS011;13455;51.480;7.594;2023-04-08T02:42:13;368.75;;;27.63;;
25567;SDS011;13455;51.480;7.594;2023-04-08T02:44:39;350.95;;;27.73;;
25567;SDS011;13455;51.480;7.594;2023-04-08T02:47:05;251.10;;;27.25;;
25567;SDS011;13455;51.480;7.594;2023-04-08T02:49:31;229.50;;;28.23;;
25567;SDS011;13455;51.480;7.594;2023-04-08T02:51:57;153.40;;;26.70;;
25567;SDS011;13455;51.480;7.594;2023-04-08T02:54:23;147.40;;;26.10;;
25567;SDS011;13455;51.480;7.594;2023-04-08T02:56:50;138.05;;;24.42;;
25567;SDS011;13455;51.480;7.594;2023-04-08T02:59:16;84.63;;;24.27;;
25567;SDS011;13455;51.480;7.594;2023-04-08T03:01:41;62.00;;;22.45;;
25567;SDS011;13455;51.480;7.594;2023-04-08T03:04:07;131.68;;;22.33;;
25567;SDS011;13455;51.480;7.594;2023-04-08T03:06:33;72.95;;;20.10;;
25567;SDS011;13455;51.480;7.594;2023-04-08T03:08:58;99.03;;;21.25;;
25567;SDS011;13455;51.480;7.594;2023-04-08T03:11:24;86.77;;;20.27;;
25567;SDS011;13455;51.480;7.594;2023-04-08T03:13:50;66.50;;;20.03;;
25567;SDS011;13455;51.480;7.594;2023-04-08T03:16:15;84.80;;;19.03;;
25567;SDS011;13455;51.480;7.594;2023-04-08T03:18:41;57.22;;;18.27;;
25567;SDS011;13455;51.480;7.594;2023-04-08T03:21:07;72.47;;;19.25;;
25567;SDS011;13455;51.480;7.594;2023-04-08T03:23:32;175.68;;;19.90;;
25567;SDS011;13455;51.480;7.594;2023-04-08T03:25:58;232.95;;;20.52;;
25567;SDS011;13455;51.480;7.594;2023-04-08T03:28:23;182.13;;;19.52;;
25567;SDS011;13455;51.480;7.594;2023-04-08T03:30:49;141.57;;;18.70;;
25567;SDS011;13455;51.480;7.594;2023-04-08T03:33:15;112.10;;;17.42;;
25567;SDS011;13455;51.480;7.594;2023-04-08T03:35:40;125.90;;;17.47;;
25567;SDS011;13455;51.480;7.594;2023-04-08T03:38:06;164.93;;;17.90;;
25567;SDS011;13455;51.480;7.594;2023-04-08T03:40:32;179.80;;;17.73;;
25567;SDS011;13455;51.480;7.594;2023-04-08T03:42:58;171.85;;;18.13;;
25567;SDS011;13455;51.480;7.594;2023-04-08T03:45:23;146.50;;;17.08;;
25567;SDS011;13455;51.480;7.594;2023-04-08T03:47:49;105.93;;;17.15;;
25567;SDS011;13455;51.480;7.594;2023-04-08T03:50:14;127.55;;;16.92;;
25567;SDS011;13455;51.480;7.594;2023-04-08T03:52:40;198.50;;;17.20;;
25567;SDS011;13455;51.480;7.594;2023-04-08T03:55:06;263.42;;;18.60;;
25567;SDS011;13455;51.480;7.594;2023-04-08T03:57:31;216.25;;;18.75;;
25567;SDS011;13455;51.480;7.594;2023-04-08T03:59:57;264.10;;;18.87;;
25567;SDS011;13455;51.480;7.594;2023-04-08T04:02:23;301.40;;;19.53;;
25567;SDS011;13455;51.480;7.594;2023-04-08T04:04:48;330.10;;;19.43;;
25567;SDS011;13455;51.480;7.594;2023-04-08T04:07:14;255.77;;;18.43;;
25567;SDS011;13455;51.480;7.594;2023-04-08T04:09:40;255.93;;;19.73;;
25567;SDS011;13455;51.480;7.594;2023-04-08T04:12:06;261.80;;;18.80;;
25567;SDS011;13455;51.480;7.594;2023-04-08T04:14:31;264.15;;;19.10;;
25567;SDS011;13455;51.480;7.594;2023-04-08T04:16:57;399.05;;;20.48;;
25567;SDS011;13455;51.480;7.594;2023-04-08T04:19:22;366.27;;;19.20;;
25567;SDS011;13455;51.480;7.594;2023-04-08T04:21:48;421.85;;;20.92;;
25567;SDS011;13455;51.480;7.594;2023-04-08T04:24:13;467.38;;;20.83;;
25567;SDS011;13455;51.480;7.594;2023-04-08T04:26:40;488.10;;;22.05;;
25567;SDS011;13455;51.480;7.594;2023-04-08T04:29:06;521.15;;;22.98;;
25567;SDS011;13455;51.480;7.594;2023-04-08T04:31:31;555.67;;;23.05;;
25567;SDS011;13455;51.480;7.594;2023-04-08T04:33:57;610.70;;;25.80;;
25567;SDS011;13455;51.480;7.594;2023-04-08T04:36:23;530.63;;;22.87;;
25567;SDS011;13455;51.480;7.594;2023-04-08T04:38:49;471.20;;;22.98;;
25567;SDS011;13455;51.480;7.594;2023-04-08T04:41:15;440.60;;;22.63;;
25567;SDS011;13455;51.480;7.594;2023-04-08T04:43:41;428.20;;;23.10;;
25567;SDS011;13455;51.480;7.594;2023-04-08T04:46:07;391.97;;;22.73;;
25567;SDS011;13455;51.480;7.594;2023-04-08T04:48:33;339.92;;;21.83;;
25567;SDS011;13455;51.480;7.594;2023-04-08T04:51:00;418.80;;;22.77;;
25567;SDS011;13455;51.480;7.594;2023-04-08T04:53:27;454.67;;;22.45;;
25567;SDS011;13455;51.480;7.594;2023-04-08T04:55:53;300.88;;;22.05;;
25567;SDS011;13455;51.480;7.594;2023-04-08T04:58:19;272.23;;;20.58;;
25567;SDS011;13455;51.480;7.594;2023-04-08T05:00:45;284.48;;;20.80;;
25567;SDS011;13455;51.480;7.594;2023-04-08T05:03:11;156.13;;;19.37;;
25567;SDS011;13455;51.480;7.594;2023-04-08T05:05:37;179.90;;;20.35;;
25567;SDS011;13455;51.480;7.594;2023-04-08T05:08:02;130.23;;;19.92;;
25567;SDS011;13455;51.480;7.594;2023-04-08T05:10:28;90.93;;;18.53;;
25567;SDS011;13455;51.480;7.594;2023-04-08T05:12:54;114.47;;;19.87;;
25567;SDS011;13455;51.480;7.594;2023-04-08T05:15:20;67.93;;;18.38;;
25567;SDS011;13455;51.480;7.594;2023-04-08T05:17:45;73.55;;;17.42;;
25567;SDS011;13455;51.480;7.594;2023-04-08T05:20:11;35.47;;;17.10;;
25567;SDS011;13455;51.480;7.594;2023-04-08T05:22:37;39.05;;;18.23;;
25567;SDS011;13455;51.480;7.594;2023-04-08T05:25:03;27.40;;;17.13;;
25567;SDS011;13455;51.480;7.594;2023-04-08T05:27:29;31.45;;;17.75;;
25567;SDS011;13455;51.480;7.594;2023-04-08T05:29:55;25.02;;;17.27;;
25567;SDS011;13455;51.480;7.594;2023-04-08T05:32:21;26.77;;;17.80;;
25567;SDS011;13455;51.480;7.594;2023-04-08T05:34:47;25.53;;;17.20;;
25567;SDS011;13455;51.480;7.594;2023-04-08T05:37:12;26.13;;;17.50;;
25567;SDS011;13455;51.480;7.594;2023-04-08T05:39:38;57.00;;;19.13;;
25567;SDS011;13455;51.480;7.594;2023-04-08T05:42:03;50.63;;;18.53;;
25567;SDS011;13455;51.480;7.594;2023-04-08T05:44:29;140.90;;;19.93;;
25567;SDS011;13455;51.480;7.594;2023-04-08T05:46:55;184.07;;;19.98;;
25567;SDS011;13455;51.480;7.594;2023-04-08T05:49:21;110.93;;;18.63;;
25567;SDS011;13455;51.480;7.594;2023-04-08T05:51:47;156.82;;;20.60;;
25567;SDS011;13455;51.480;7.594;2023-04-08T05:54:13;153.38;;;20.70;;
25567;SDS011;13455;51.480;7.594;2023-04-08T05:56:38;145.88;;;19.00;;
25567;SDS011;13455;51.480;7.594;2023-04-08T05:59:04;190.35;;;19.65;;
25567;SDS011;13455;51.480;7.594;2023-04-08T06:01:30;413.87;;;22.40;;
25567;SDS011;13455;51.480;7.594;2023-04-08T06:03:55;325.17;;;21.73;;
25567;SDS011;13455;51.480;7.594;2023-04-08T06:06:21;263.77;;;21.23;;
25567;SDS011;13455;51.480;7.594;2023-04-08T06:08:47;280.33;;;21.65;;
25567;SDS011;13455;51.480;7.594;2023-04-08T06:11:13;320.15;;;22.42;;
25567;SDS011;13455;51.480;7.594;2023-04-08T06:13:39;281.70;;;21.92;;
25567;SDS011;13455;51.480;7.594;2023-04-08T06:16:11;417.13;;;23.80;;
25567;SDS011;13455;51.480;7.594;2023-04-08T06:18:38;445.10;;;23.73;;
25567;SDS011;13455;51.480;7.594;2023-04-08T06:21:04;418.67;;;24.77;;
25567;SDS011;13455;51.480;7.594;2023-04-08T06:23:30;404.33;;;23.83;;
25567;SDS011;13455;51.480;7.594;2023-04-08T06:25:56;431.05;;;25.80;;
25567;SDS011;13455;51.480;7.594;2023-04-08T06:28:22;629.97;;;29.97;;
25567;SDS011;13455;51.480;7.594;2023-04-08T06:30:48;428.10;;;27.48;;
25567;SDS011;13455;51.480;7.594;2023-04-08T06:33:14;306.02;;;24.40;;
25567;SDS011;13455;51.480;7.594;2023-04-08T06:35:39;411.25;;;28.25;;
25567;SDS011;13455;51.480;7.594;2023-04-08T06:38:05;191.97;;;22.23;;
25567;SDS011;13455;51.480;7.594;2023-04-08T06:40:31;349.43;;;26.97;;
25567;SDS011;13455;51.480;7.594;2023-04-08T06:42:57;272.02;;;22.90;;
25567;SDS011;13455;51.480;7.594;2023-04-08T06:45:22;331.67;;;26.85;;
25567;SDS011;13455;51.480;7.594;2023-04-08T06:47:48;261.77;;;24.52;;
25567;SDS011;13455;51.480;7.594;2023-04-08T06:50:14;246.48;;;23.25;;
25567;SDS011;13455;51.480;7.594;2023-04-08T06:52:40;220.53;;;22.83;;
25567;SDS011;13455;51.480;7.594;2023-04-08T06:55:06;327.07;;;27.43;;
25567;SDS011;13455;51.480;7.594;2023-04-08T06:57:31;155.75;;;23.63;;
25567;SDS011;13455;51.480;7.594;2023-04-08T06:59:57;119.05;;;23.13;;
25567;SDS011;13455;51.480;7.594;2023-04-08T07:02:24;64.35;;;23.50;;
25567;SDS011;13455;51.480;7.594;2023-04-08T07:04:50;105.50;;;23.40;;
25567;SDS011;13455;51.480;7.594;2023-04-08T07:07:16;95.35;;;23.67;;
25567;SDS011;13455;51.480;7.594;2023-04-08T07:09:41;119.63;;;24.00;;
25567;SDS011;13455;51.480;7.594;2023-04-08T07:12:09;132.50;;;24.63;;
25567;SDS011;13455;51.480;7.594;2023-04-08T07:14:35;64.18;;;23.55;;
25567;SDS011;13455;51.480;7.594;2023-04-08T07:17:01;49.28;;;25.33;;
25567;SDS011;13455;51.480;7.594;2023-04-08T07:19:27;31.48;;;24.17;;
25567;SDS011;13455;51.480;7.594;2023-04-08T07:21:52;27.35;;;21.15;;
25567;SDS011;13455;51.480;7.594;2023-04-08T07:24:18;26.92;;;20.77;;
25567;SDS011;13455;51.480;7.594;2023-04-08T07:26:44;27.95;;;22.27;;
25567;SDS011;13455;51.480;7.594;2023-04-08T07:29:09;26.00;;;19.40;;
25567;SDS011;13455;51.480;7.594;2023-04-08T07:31:35;23.10;;;17.90;;
25567;SDS011;13455;51.480;7.594;2023-04-08T07:34:00;23.50;;;17.33;;
25567;SDS011;13455;51.480;7.594;2023-04-08T07:36:26;20.60;;;16.37;;
25567;SDS011;13455;51.480;7.594;2023-04-08T07:38:52;21.43;;;16.80;;
25567;SDS011;13455;51.480;7.594;2023-04-08T07:41:18;22.23;;;17.10;;
25567;SDS011;13455;51.480;7.594;2023-04-08T07:43:43;20.20;;;16.10;;
25567;SDS011;13455;51.480;7.594;2023-04-08T07:46:09;22.27;;;16.77;;
25567;SDS011;13455;51.480;7.594;2023-04-08T07:48:34;19.40;;;15.23;;
25567;SDS011;13455;51.480;7.594;2023-04-08T07:51:07;19.43;;;14.93;;
25567;SDS011;13455;51.480;7.594;2023-04-08T07:53:34;19.50;;;14.82;;
25567;SDS011;13455;51.480;7.594;2023-04-08T07:56:00;19.40;;;15.55;;
25567;SDS011;13455;51.480;7.594;2023-04-08T07:58:28;20.23;;;15.73;;
25567;SDS011;13455;51.480;7.594;2023-04-08T08:00:54;22.10;;;16.10;;
25567;SDS011;13455;51.480;7.594;2023-04-08T08:03:21;20.13;;;16.08;;
25567;SDS011;13455;51.480;7.594;2023-04-08T08:05:46;19.90;;;16.30;;
25567;SDS011;13455;51.480;7.594;2023-04-08T08:08:12;19.10;;;15.00;;
25567;SDS011;13455;51.480;7.594;2023-04-08T08:10:38;18.83;;;14.77;;
25567;SDS011;13455;51.480;7.594;2023-04-08T08:13:05;19.38;;;15.38;;
25567;SDS011;13455;51.480;7.594;2023-04-08T08:15:32;18.23;;;14.18;;
25567;SDS011;13455;51.480;7.594;2023-04-08T08:17:57;19.70;;;15.23;;
25567;SDS011;13455;51.480;7.594;2023-04-08T08:20:23;20.02;;;15.82;;
25567;SDS011;13455;51.480;7.594;2023-04-08T08:22:49;20.10;;;15.50;;
25567;SDS011;13455;51.480;7.594;2023-04-08T08:25:15;20.53;;;15.70;;
25567;SDS011;13455;51.480;7.594;2023-04-08T08:27:41;18.70;;;14.80;;
25567;SDS011;13455;51.480;7.594;2023-04-08T08:30:07;18.57;;;15.17;;
25567;SDS011;13455;51.480;7.594;2023-04-08T08:32:33;18.48;;;14.45;;
25567;SDS011;13455;51.480;7.594;2023-04-08T08:35:00;18.95;;;14.68;;
25567;SDS011;13455;51.480;7.594;2023-04-08T08:37:25;19.38;;;15.43;;
25567;SDS011;13455;51.480;7.594;2023-04-08T08:39:51;18.80;;;15.30;;
25567;SDS011;13455;51.480;7.594;2023-04-08T08:42:18;17.90;;;15.10;;
25567;SDS011;13455;51.480;7.594;2023-04-08T08:44:47;19.10;;;15.40;;
25567;SDS011;13455;51.480;7.594;2023-04-08T08:47:14;19.25;;;15.40;;
25567;SDS011;13455;51.480;7.594;2023-04-08T08:49:40;19.67;;;15.25;;
25567;SDS011;13455;51.480;7.594;2023-04-08T08:52:06;19.63;;;15.93;;
25567;SDS011;13455;51.480;7.594;2023-04-08T08:54:31;19.37;;;15.73;;
25567;SDS011;13455;51.480;7.594;2023-04-08T08:56:57;21.50;;;16.17;;
25567;SDS011;13455;51.480;7.594;2023-04-08T08:59:23;18.25;;;15.60;;
25567;SDS011;13455;51.480;7.594;2023-04-08T09:01:49;20.67;;;16.60;;
25567;SDS011;13455;51.480;7.594;2023-04-08T09:04:19;24.42;;;15.93;;
25567;SDS011;13455;51.480;7.594;2023-04-08T09:06:46;18.45;;;15.27;;
25567;SDS011;13455;51.480;7.594;2023-04-08T09:09:16;18.77;;;14.98;;
25567;SDS011;13455;51.480;7.594;2023-04-08T09:11:43;16.63;;;13.60;;
25567;SDS011;13455;51.480;7.594;2023-04-08T09:14:19;19.95;;;13.98;;
25567;SDS011;13455;51.480;7.594;2023-04-08T09:16:46;20.10;;;15.32;;
25567;SDS011;13455;51.480;7.594;2023-04-08T09:19:12;18.20;;;14.60;;
25567;SDS011;13455;51.480;7.594;2023-04-08T09:21:38;18.17;;;13.00;;
25567;SDS011;13455;51.480;7.594;2023-04-08T09:24:05;16.15;;;12.70;;
25567;SDS011;13455;51.480;7.594;2023-04-08T09:26:31;15.68;;;12.10;;
25567;SDS011;13455;51.480;7.594;2023-04-08T09:31:31;18.73;;;13.02;;
25567;SDS011;13455;51.480;7.594;2023-04-08T09:34:08;17.63;;;13.13;;
25567;SDS011;13455;51.480;7.594;2023-04-08T09:36:34;18.58;;;12.32;;
25567;SDS011;13455;51.480;7.594;2023-04-08T09:39:00;16.77;;;12.90;;
25567;SDS011;13455;51.480;7.594;2023-04-08T09:41:25;18.38;;;12.23;;
25567;SDS011;13455;51.480;7.594;2023-04-08T09:43:53;17.38;;;12.10;;
25567;SDS011;13455;51.480;7.594;2023-04-08T09:49:10;16.65;;;12.55;;
25567;SDS011;13455;51.480;7.594;2023-04-08T09:54:31;15.43;;;12.68;;
25567;SDS011;13455;51.480;7.594;2023-04-08T09:57:04;19.10;;;14.00;;
25567;SDS011;13455;51.480;7.594;2023-04-08T09:59:34;16.83;;;13.00;;
25567;SDS011;13455;51.480;7.594;2023-04-08T10:02:04;16.00;;;12.32;;
25567;SDS011;13455;51.480;7.594;2023-04-08T10:04:34;15.98;;;12.05;;
25567;SDS011;13455;51.480;7.594;2023-04-08T10:07:03;16.58;;;12.98;;
25567;SDS011;13455;51.480;7.594;2023-04-08T10:09:29;15.75;;;12.35;;
25567;SDS011;13455;51.480;7.594;2023-04-08T10:11:56;15.18;;;12.05;;
25567;SDS011;13455;51.480;7.594;2023-04-08T10:14:22;16.23;;;12.32;;
25567;SDS011;13455;51.480;7.594;2023-04-08T10:17:08;16.27;;;12.60;;
25567;SDS011;13455;51.480;7.594;2023-04-08T10:19:53;17.40;;;12.98;;
25567;SDS011;13455;51.480;7.594;2023-04-08T10:27:42;16.52;;;13.02;;
25567;SDS011;13455;51.480;7.594;2023-04-08T10:32:53;18.73;;;12.45;;
25567;SDS011;13455;51.480;7.594;2023-04-08T10:35:30;16.00;;;12.48;;
25567;SDS011;13455;51.480;7.594;2023-04-08T10:37:57;14.68;;;12.25;;
25567;SDS011;13455;51.480;7.594;2023-04-08T10:40:23;19.33;;;14.07;;
25567;SDS011;13455;51.480;7.594;2023-04-08T10:42:53;17.92;;;12.70;;
25567;SDS011;13455;51.480;7.594;2023-04-08T10:45:22;17.05;;;12.90;;
25567;SDS011;13455;51.480;7.594;2023-04-08T10:47:48;17.77;;;12.67;;
25567;SDS011;13455;51.480;7.594;2023-04-08T10:50:15;16.52;;;12.07;;
25567;SDS011;13455;51.480;7.594;2023-04-08T10:52:45;16.30;;;12.43;;
25567;SDS011;13455;51.480;7.594;2023-04-08T10:55:12;16.83;;;12.43;;
25567;SDS011;13455;51.480;7.594;2023-04-08T10:57:38;18.40;;;12.70;;
25567;SDS011;13455;51.480;7.594;2023-04-08T11:00:09;16.80;;;13.32;;
25567;SDS011;13455;51.480;7.594;2023-04-08T11:02:38;18.27;;;13.32;;
25567;SDS011;13455;51.480;7.594;2023-04-08T11:05:04;16.35;;;13.20;;
25567;SDS011;13455;51.480;7.594;2023-04-08T11:07:31;17.60;;;13.95;;
25567;SDS011;13455;51.480;7.594;2023-04-08T11:09:57;17.17;;;13.53;;
25567;SDS011;13455;51.480;7.594;2023-04-08T11:12:26;19.17;;;13.63;;
25567;SDS011;13455;51.480;7.594;2023-04-08T11:14:52;16.77;;;13.53;;
25567;SDS011;13455;51.480;7.594;2023-04-08T11:17:18;17.52;;;14.20;;
25567;SDS011;13455;51.480;7.594;2023-04-08T11:19:45;18.23;;;13.63;;
25567;SDS011;13455;51.480;7.594;2023-04-08T11:22:11;17.20;;;13.88;;
25567;SDS011;13455;51.480;7.594;2023-04-08T11:24:37;18.70;;;14.93;;
25567;SDS011;13455;51.480;7.594;2023-04-08T11:27:03;17.75;;;14.80;;
25567;SDS011;13455;51.480;7.594;2023-04-08T11:29:32;18.77;;;14.88;;
25567;SDS011;13455;51.480;7.594;2023-04-08T11:31:58;18.00;;;14.68;;
25567;SDS011;13455;51.480;7.594;2023-04-08T11:34:25;30.77;;;25.55;;
25567;SDS011;13455;51.480;7.594;2023-04-08T11:36:52;25.40;;;21.50;;
25567;SDS011;13455;51.480;7.594;2023-04-08T11:39:21;19.50;;;16.77;;
25567;SDS011;13455;51.480;7.594;2023-04-08T11:41:48;20.88;;;16.67;;
25567;SDS011;13455;51.480;7.594;2023-04-08T11:44:14;19.65;;;15.43;;
25567;SDS011;13455;51.480;7.594;2023-04-08T11:46:40;19.17;;;15.13;;
25567;SDS011;13455;51.480;7.594;2023-04-08T11:49:16;18.88;;;15.10;;
25567;SDS011;13455;51.480;7.594;2023-04-08T11:51:57;18.97;;;14.73;;
25567;SDS011;13455;51.480;7.594;2023-04-08T11:54:30;18.52;;;14.80;;
25567;SDS011;13455;51.480;7.594;2023-04-08T11:56:57;18.13;;;14.87;;
25567;SDS011;13455;51.480;7.594;2023-04-08T11:59:24;17.17;;;14.10;;
25567;SDS011;13455;51.480;7.594;2023-04-08T12:01:50;17.70;;;15.00;;
25567;SDS011;13455;51.480;7.594;2023-04-08T12:04:18;17.77;;;14.20;;
25567;SDS011;13455;51.480;7.594;2023-04-08T12:06:45;16.65;;;13.98;;
25567;SDS011;13455;51.480;7.594;2023-04-08T12:09:11;17.98;;;14.00;;
25567;SDS011;13455;51.480;7.594;2023-04-08T12:11:37;17.43;;;14.10;;
25567;SDS011;13455;51.480;7.594;2023-04-08T12:14:03;16.58;;;13.20;;
25567;SDS011;13455;51.480;7.594;2023-04-08T12:16:29;16.23;;;12.98;;
25567;SDS011;13455;51.480;7.594;2023-04-08T12:18:55;15.60;;;12.90;;
25567;SDS011;13455;51.480;7.594;2023-04-08T12:21:21;15.73;;;12.52;;
25567;SDS011;13455;51.480;7.594;2023-04-08T12:23:47;15.88;;;12.25;;
25567;SDS011;13455;51.480;7.594;2023-04-08T12:26:13;15.52;;;12.98;;
25567;SDS011;13455;51.480;7.594;2023-04-08T12:28:39;17.03;;;12.27;;
25567;SDS011;13455;51.480;7.594;2023-04-08T12:31:06;17.58;;;12.45;;
25567;SDS011;13455;51.480;7.594;2023-04-08T12:33:32;15.90;;;12.18;;
25567;SDS011;13455;51.480;7.594;2023-04-08T12:35:58;16.30;;;13.10;;
25567;SDS011;13455;51.480;7.594;2023-04-08T12:38:24;16.08;;;12.05;;
25567;SDS011;13455;51.480;7.594;2023-04-08T12:40:51;15.15;;;11.80;;
25567;SDS011;13455;51.480;7.594;2023-04-08T12:43:17;14.02;;;11.57;;
25567;SDS011;13455;51.480;7.594;2023-04-08T12:45:43;15.00;;;11.63;;
25567;SDS011;13455;51.480;7.594;2023-04-08T12:48:09;14.50;;;11.90;;
25567;SDS011;13455;51.480;7.594;2023-04-08T12:50:34;14.20;;;11.18;;
25567;SDS011;13455;51.480;7.594;2023-04-08T12:53:03;16.00;;;11.75;;
25567;SDS011;13455;51.480;7.594;2023-04-08T12:55:32;16.95;;;11.55;;
25567;SDS011;13455;51.480;7.594;2023-04-08T12:57:58;15.05;;;11.98;;
25567;SDS011;13455;51.480;7.594;2023-04-08T13:00:24;13.83;;;11.27;;
25567;SDS011;13455;51.480;7.594;2023-04-08T13:02:51;15.18;;;11.88;;
25567;SDS011;13455;51.480;7.594;2023-04-08T13:05:17;15.77;;;12.60;;
25567;SDS011;13455;51.480;7.594;2023-04-08T13:07:43;15.05;;;12.65;;
25567;SDS011;13455;51.480;7.594;2023-04-08T13:10:09;15.98;;;12.48;;
25567;SDS011;13455;51.480;7.594;2023-04-08T13:12:35;15.77;;;12.90;;
25567;SDS011;13455;51.480;7.594;2023-04-08T13:15:04;15.02;;;13.13;;
25567;SDS011;13455;51.480;7.594;2023-04-08T13:17:30;18.10;;;14.88;;
25567;SDS011;13455;51.480;7.594;2023-04-08T13:19:56;16.95;;;13.55;;
25567;SDS011;13455;51.480;7.594;2023-04-08T13:22:22;17.25;;;14.45;;
25567;SDS011;13455;51.480;7.594;2023-04-08T13:24:48;16.70;;;14.00;;
25567;SDS011;13455;51.480;7.594;2023-04-08T13:27:14;15.50;;;12.38;;
25567;SDS011;13455;51.480;7.594;2023-04-08T13:29:40;13.25;;;10.85;;
25567;SDS011;13455;51.480;7.594;2023-04-08T13:32:06;14.43;;;11.57;;
25567;SDS011;13455;51.480;7.594;2023-04-08T13:34:32;14.25;;;11.77;;
25567;SDS011;13455;51.480;7.594;2023-04-08T13:36:58;13.52;;;11.38;;
25567;SDS011;13455;51.480;7.594;2023-04-08T13:39:24;13.82;;;11.85;;
25567;SDS011;13455;51.480;7.594;2023-04-08T13:41:50;15.68;;;12.27;;
25567;SDS011;13455;51.480;7.594;2023-04-08T13:44:16;13.73;;;11.75;;
25567;SDS011;13455;51.480;7.594;2023-04-08T13:46:42;14.00;;;11.90;;
25567;SDS011;13455;51.480;7.594;2023-04-08T13:49:08;15.30;;;12.83;;
25567;SDS011;13455;51.480;7.594;2023-04-08T13:51:34;17.85;;;13.27;;
25567;SDS011;13455;51.480;7.594;2023-04-08T13:54:00;17.88;;;14.77;;
25567;SDS011;13455;51.480;7.594;2023-04-08T13:56:27;19.63;;;14.73;;
25567;SDS011;13455;51.480;7.594;2023-04-08T13:58:53;16.90;;;14.40;;
25567;SDS011;13455;51.480;7.594;2023-04-08T14:01:19;19.15;;;15.90;;
25567;SDS011;13455;51.480;7.594;2023-04-08T14:03:45;19.47;;;15.97;;
25567;SDS011;13455;51.480;7.594;2023-04-08T14:06:13;19.40;;;15.80;;
25567;SDS011;13455;51.480;7.594;2023-04-08T14:08:39;20.05;;;15.95;;
25567;SDS011;13455;51.480;7.594;2023-04-08T14:11:06;20.88;;;15.80;;
25567;SDS011;13455;51.480;7.594;2023-04-08T14:13:32;20.00;;;15.95;;
25567;SDS011;13455;51.480;7.594;2023-04-08T14:15:58;20.40;;;16.40;;
25567;SDS011;13455;51.480;7.594;2023-04-08T14:18:26;22.80;;;16.70;;
25567;SDS011;13455;51.480;7.594;2023-04-08T14:20:53;21.05;;;16.42;;
25567;SDS011;13455;51.480;7.594;2023-04-08T14:23:20;19.90;;;16.30;;
25567;SDS011;13455;51.480;7.594;2023-04-08T14:25:46;20.35;;;16.15;;
25567;SDS011;13455;51.480;7.594;2023-04-08T14:28:12;19.98;;;15.50;;
25567;SDS011;13455;51.480;7.594;2023-04-08T14:30:38;19.90;;;16.02;;
25567;SDS011;13455;51.480;7.594;2023-04-08T14:33:04;20.27;;;16.13;;
25567;SDS011;13455;51.480;7.594;2023-04-08T14:35:30;19.48;;;16.20;;
25567;SDS011;13455;51.480;7.594;2023-04-08T14:37:56;20.30;;;16.15;;
25567;SDS011;13455;51.480;7.594;2023-04-08T14:40:22;19.85;;;15.50;;
25567;SDS011;13455;51.480;7.594;2023-04-08T14:42:48;19.83;;;15.00;;